sensor_id;sensor_type;location;lat;lon;timestamp;temperature;humidity
55036;DHT22;40936;53.008;6.556;2023-03-05T00:01:08;4.40;99.90
55036;DHT22;40936;53.008;6.556;2023-03-05T00:03:36;5.70;99.90
55036;DHT22;40936;53.008;6.556;2023-03-05T00:06:03;5.70;99.90
55036;DHT22;40936;53.008;6.556;2023-03-05T00:08:29;5.30;99.90
55036;DHT22;40936;53.008;6.556;2023-03-05T00:11:03;4.70;99.90
55036;DHT22;40936;53.008;6.556;2023-03-05T00:13:30;5.20;99.90
55036;DHT22;40936;53.008;6.556;2023-03-05T00:15:56;5.20;99.90
55036;DHT22;40936;53.008;6.556;2023-03-05T00:18:22;5.30;99.90
55036;DHT22;40936;53.008;6.556;2023-03-05T00:20:48;5.10;99.90
55036;DHT22;40936;53.008;6.556;2023-03-05T00:23:15;3.40;99.90
55036;DHT22;40936;53.008;6.556;2023-03-05T00:25:41;6.60;99.90
55036;DHT22;40936;53.008;6.556;2023-03-05T00:30:34;4.90;99.90
55036;DHT22;40936;53.008;6.556;2023-03-05T00:32:59;4.20;99.90
55036;DHT22;40936;53.008;6.556;2023-03-05T00:35:25;7.40;99.90
55036;DHT22;40936;53.008;6.556;2023-03-05T00:37:52;5.90;99.90
55036;DHT22;40936;53.008;6.556;2023-03-05T00:40:18;6.80;99.90
55036;DHT22;40936;53.008;6.556;2023-03-05T00:42:43;5.00;99.90
55036;DHT22;40936;53.008;6.556;2023-03-05T00:45:10;7.00;99.90
55036;DHT22;40936;53.008;6.556;2023-03-05T00:47:36;7.00;99.90
55036;DHT22;40936;53.008;6.556;2023-03-05T00:50:02;6.10;99.90
55036;DHT22;40936;53.008;6.556;2023-03-05T00:52:28;5.20;99.90
55036;DHT22;40936;53.008;6.556;2023-03-05T00:54:54;5.60;99.90
55036;DHT22;40936;53.008;6.556;2023-03-05T00:57:20;4.90;99.90
55036;DHT22;40936;53.008;6.556;2023-03-05T00:59:46;4.90;99.90
55036;DHT22;40936;53.008;6.556;2023-03-05T01:02:11;4.90;99.90
55036;DHT22;40936;53.008;6.556;2023-03-05T01:04:37;7.00;99.90
55036;DHT22;40936;53.008;6.556;2023-03-05T01:07:03;4.90;99.90
55036;DHT22;40936;53.008;6.556;2023-03-05T01:09:29;5.10;99.90
55036;DHT22;40936;53.008;6.556;2023-03-05T01:14:22;4.60;99.90
55036;DHT22;40936;53.008;6.556;2023-03-05T01:16:48;7.00;99.90
55036;DHT22;40936;53.008;6.556;2023-03-05T01:19:15;6.40;99.90
55036;DHT22;40936;53.008;6.556;2023-03-05T01:21:41;6.20;99.90
55036;DHT22;40936;53.008;6.556;2023-03-05T01:24:07;4.70;99.90
55036;DHT22;40936;53.008;6.556;2023-03-05T01:26:33;5.80;99.90
55036;DHT22;40936;53.008;6.556;2023-03-05T01:28:59;4.30;99.90
55036;DHT22;40936;53.008;6.556;2023-03-05T01:33:52;5.10;99.90
55036;DHT22;40936;53.008;6.556;2023-03-05T01:36:19;5.20;99.90
55036;DHT22;40936;53.008;6.556;2023-03-05T01:38:46;5.00;1.00
55036;DHT22;40936;53.008;6.556;2023-03-05T01:41:13;5.00;22.00
55036;DHT22;40936;53.008;6.556;2023-03-05T01:43:40;5.20;24.20
55036;DHT22;40936;53.008;6.556;2023-03-05T01:46:32;6.60;99.90
55036;DHT22;40936;53.008;6.556;2023-03-05T01:51:28;4.20;99.90
55036;DHT22;40936;53.008;6.556;2023-03-05T01:53:55;4.70;1.00
55036;DHT22;40936;53.008;6.556;2023-03-05T01:56:23;5.40;1.00
55036;DHT22;40936;53.008;6.556;2023-03-05T01:58:49;4.50;1.00
55036;DHT22;40936;53.008;6.556;2023-03-05T02:01:16;4.80;10.90
55036;DHT22;40936;53.008;6.556;2023-03-05T02:03:42;5.80;1.00
55036;DHT22;40936;53.008;6.556;2023-03-05T02:06:09;5.30;23.70
55036;DHT22;40936;53.008;6.556;2023-03-05T02:08:35;5.10;99.90
55036;DHT22;40936;53.008;6.556;2023-03-05T02:11:01;4.60;1.00
55036;DHT22;40936;53.008;6.556;2023-03-05T02:13:30;5.60;99.90
55036;DHT22;40936;53.008;6.556;2023-03-05T02:15:58;6.90;99.90
55036;DHT22;40936;53.008;6.556;2023-03-05T02:18:24;5.60;99.90
55036;DHT22;40936;53.008;6.556;2023-03-05T02:23:24;5.50;99.90
55036;DHT22;40936;53.008;6.556;2023-03-05T02:25:50;5.20;99.90
55036;DHT22;40936;53.008;6.556;2023-03-05T02:28:22;4.60;99.90
55036;DHT22;40936;53.008;6.556;2023-03-05T02:30:50;4.60;99.90
55036;DHT22;40936;53.008;6.556;2023-03-05T02:33:18;5.10;99.90
55036;DHT22;40936;53.008;6.556;2023-03-05T02:35:45;5.10;99.90
55036;DHT22;40936;53.008;6.556;2023-03-05T02:38:12;4.60;1.00
55036;DHT22;40936;53.008;6.556;2023-03-05T02:40:38;4.10;79.20
55036;DHT22;40936;53.008;6.556;2023-03-05T02:43:05;4.60;99.90
55036;DHT22;40936;53.008;6.556;2023-03-05T02:45:31;3.80;99.90
55036;DHT22;40936;53.008;6.556;2023-03-05T02:47:57;4.10;99.90
55036;DHT22;40936;53.008;6.556;2023-03-05T02:50:23;4.50;1.00
55036;DHT22;40936;53.008;6.556;2023-03-05T02:52:50;4.50;1.00
55036;DHT22;40936;53.008;6.556;2023-03-05T02:55:16;4.50;99.90
55036;DHT22;40936;53.008;6.556;2023-03-05T02:57:42;4.50;76.70
55036;DHT22;40936;53.008;6.556;2023-03-05T03:00:08;5.10;1.00
55036;DHT22;40936;53.008;6.556;2023-03-05T03:02:34;4.60;1.00
55036;DHT22;40936;53.008;6.556;2023-03-05T03:05:00;6.40;1.00
55036;DHT22;40936;53.008;6.556;2023-03-05T03:07:26;3.20;99.90
55036;DHT22;40936;53.008;6.556;2023-03-05T03:09:52;4.50;99.90
55036;DHT22;40936;53.008;6.556;2023-03-05T03:12:18;5.40;99.90
55036;DHT22;40936;53.008;6.556;2023-03-05T03:14:43;6.80;99.90
55036;DHT22;40936;53.008;6.556;2023-03-05T03:17:11;5.20;99.90
55036;DHT22;40936;53.008;6.556;2023-03-05T03:19:38;4.00;99.90
55036;DHT22;40936;53.008;6.556;2023-03-05T03:22:07;5.90;99.90
55036;DHT22;40936;53.008;6.556;2023-03-05T03:24:34;5.10;55.90
55036;DHT22;40936;53.008;6.556;2023-03-05T03:29:27;3.30;7.60
55036;DHT22;40936;53.008;6.556;2023-03-05T03:31:53;6.40;1.00
55036;DHT22;40936;53.008;6.556;2023-03-05T03:34:19;5.40;1.00
55036;DHT22;40936;53.008;6.556;2023-03-05T03:36:46;4.50;1.00
55036;DHT22;40936;53.008;6.556;2023-03-05T03:39:12;4.80;1.00
55036;DHT22;40936;53.008;6.556;2023-03-05T03:41:57;5.10;1.00
55036;DHT22;40936;53.008;6.556;2023-03-05T03:44:23;5.60;1.00
55036;DHT22;40936;53.008;6.556;2023-03-05T03:46:49;5.40;1.00
55036;DHT22;40936;53.008;6.556;2023-03-05T03:54:07;4.50;1.00
55036;DHT22;40936;53.008;6.556;2023-03-05T03:56:33;6.70;1.00
55036;DHT22;40936;53.008;6.556;2023-03-05T03:58:59;4.50;1.00
55036;DHT22;40936;53.008;6.556;2023-03-05T04:01:24;6.80;1.00
55036;DHT22;40936;53.008;6.556;2023-03-05T04:03:50;4.50;1.00
55036;DHT22;40936;53.008;6.556;2023-03-05T04:06:16;6.60;1.00
55036;DHT22;40936;53.008;6.556;2023-03-05T04:11:08;4.40;1.00
55036;DHT22;40936;53.008;6.556;2023-03-05T04:13:33;3.20;1.00
55036;DHT22;40936;53.008;6.556;2023-03-05T04:15:59;4.50;1.00
55036;DHT22;40936;53.008;6.556;2023-03-05T04:18:25;3.60;1.00
55036;DHT22;40936;53.008;6.556;2023-03-05T04:20:51;3.40;99.90
55036;DHT22;40936;53.008;6.556;2023-03-05T04:23:17;6.50;94.20
55036;DHT22;40936;53.008;6.556;2023-03-05T04:25:42;2.60;99.90
55036;DHT22;40936;53.008;6.556;2023-03-05T04:28:08;6.00;99.90
55036;DHT22;40936;53.008;6.556;2023-03-05T04:30:34;3.90;99.90
55036;DHT22;40936;53.008;6.556;2023-03-05T04:33:00;3.80;99.90
55036;DHT22;40936;53.008;6.556;2023-03-05T04:35:26;6.00;99.90
55036;DHT22;40936;53.008;6.556;2023-03-05T04:37:51;6.60;99.90
55036;DHT22;40936;53.008;6.556;2023-03-05T04:40:17;7.10;99.90
55036;DHT22;40936;53.008;6.556;2023-03-05T04:42:44;3.50;99.90
55036;DHT22;40936;53.008;6.556;2023-03-05T04:45:10;5.10;40.30
55036;DHT22;40936;53.008;6.556;2023-03-05T04:47:36;6.00;1.00
55036;DHT22;40936;53.008;6.556;2023-03-05T04:50:04;4.40;1.00
55036;DHT22;40936;53.008;6.556;2023-03-05T04:52:30;4.60;1.00
55036;DHT22;40936;53.008;6.556;2023-03-05T04:54:56;4.60;1.00
55036;DHT22;40936;53.008;6.556;2023-03-05T04:57:21;4.30;1.00
55036;DHT22;40936;53.008;6.556;2023-03-05T04:59:47;4.80;1.00
55036;DHT22;40936;53.008;6.556;2023-03-05T05:02:13;5.20;1.00
55036;DHT22;40936;53.008;6.556;2023-03-05T05:04:38;4.20;1.00
55036;DHT22;40936;53.008;6.556;2023-03-05T05:07:05;4.50;1.00
55036;DHT22;40936;53.008;6.556;2023-03-05T05:09:32;4.50;1.00
55036;DHT22;40936;53.008;6.556;2023-03-05T05:11:58;4.10;1.00
55036;DHT22;40936;53.008;6.556;2023-03-05T05:16:50;4.40;1.00
55036;DHT22;40936;53.008;6.556;2023-03-05T05:19:15;2.40;1.00
55036;DHT22;40936;53.008;6.556;2023-03-05T05:21:41;3.70;1.00
55036;DHT22;40936;53.008;6.556;2023-03-05T05:24:07;3.70;1.00
55036;DHT22;40936;53.008;6.556;2023-03-05T05:26:33;6.40;1.00
55036;DHT22;40936;53.008;6.556;2023-03-05T05:28:58;3.80;1.00
55036;DHT22;40936;53.008;6.556;2023-03-05T05:31:24;4.00;1.00
55036;DHT22;40936;53.008;6.556;2023-03-05T05:33:50;4.60;1.00
55036;DHT22;40936;53.008;6.556;2023-03-05T05:36:17;4.30;1.00
55036;DHT22;40936;53.008;6.556;2023-03-05T05:38:46;5.20;1.00
55036;DHT22;40936;53.008;6.556;2023-03-05T05:41:14;4.70;1.00
55036;DHT22;40936;53.008;6.556;2023-03-05T05:43:41;5.00;10.90
55036;DHT22;40936;53.008;6.556;2023-03-05T05:46:10;4.10;1.00
55036;DHT22;40936;53.008;6.556;2023-03-05T05:48:36;4.40;1.00
55036;DHT22;40936;53.008;6.556;2023-03-05T05:51:07;4.30;1.00
55036;DHT22;40936;53.008;6.556;2023-03-05T05:55:59;5.20;1.00
55036;DHT22;40936;53.008;6.556;2023-03-05T05:58:25;4.30;1.00
55036;DHT22;40936;53.008;6.556;2023-03-05T06:00:51;3.40;1.00
55036;DHT22;40936;53.008;6.556;2023-03-05T06:03:16;4.20;1.00
55036;DHT22;40936;53.008;6.556;2023-03-05T06:05:42;4.60;1.00
55036;DHT22;40936;53.008;6.556;2023-03-05T06:08:09;4.10;1.00
55036;DHT22;40936;53.008;6.556;2023-03-05T06:10:35;5.30;1.00
55036;DHT22;40936;53.008;6.556;2023-03-05T06:13:00;4.80;1.00
55036;DHT22;40936;53.008;6.556;2023-03-05T06:15:26;5.40;1.00
55036;DHT22;40936;53.008;6.556;2023-03-05T06:17:52;3.80;1.00
55036;DHT22;40936;53.008;6.556;2023-03-05T06:20:19;3.80;1.00
55036;DHT22;40936;53.008;6.556;2023-03-05T06:22:45;5.00;1.00
55036;DHT22;40936;53.008;6.556;2023-03-05T06:25:11;6.10;1.00
55036;DHT22;40936;53.008;6.556;2023-03-05T06:27:37;6.30;1.00
55036;DHT22;40936;53.008;6.556;2023-03-05T06:30:04;6.30;1.00
55036;DHT22;40936;53.008;6.556;2023-03-05T06:32:30;3.80;1.00
55036;DHT22;40936;53.008;6.556;2023-03-05T06:34:56;4.40;1.00
55036;DHT22;40936;53.008;6.556;2023-03-05T06:37:22;4.30;1.00
55036;DHT22;40936;53.008;6.556;2023-03-05T06:39:48;4.30;1.00
55036;DHT22;40936;53.008;6.556;2023-03-05T06:42:13;3.00;1.00
55036;DHT22;40936;53.008;6.556;2023-03-05T06:44:42;4.20;1.00
55036;DHT22;40936;53.008;6.556;2023-03-05T06:47:08;4.00;1.00
55036;DHT22;40936;53.008;6.556;2023-03-05T06:52:02;4.20;1.00
55036;DHT22;40936;53.008;6.556;2023-03-05T06:54:27;4.00;1.00
55036;DHT22;40936;53.008;6.556;2023-03-05T06:56:53;3.80;1.00
55036;DHT22;40936;53.008;6.556;2023-03-05T06:59:19;5.90;1.00
55036;DHT22;40936;53.008;6.556;2023-03-05T07:01:46;6.30;1.00
55036;DHT22;40936;53.008;6.556;2023-03-05T07:04:13;4.80;1.00
55036;DHT22;40936;53.008;6.556;2023-03-05T07:06:39;5.70;1.00
55036;DHT22;40936;53.008;6.556;2023-03-05T07:09:09;4.20;1.00
55036;DHT22;40936;53.008;6.556;2023-03-05T07:11:35;4.30;1.00
55036;DHT22;40936;53.008;6.556;2023-03-05T07:14:02;3.40;1.00
55036;DHT22;40936;53.008;6.556;2023-03-05T07:16:30;6.40;1.00
55036;DHT22;40936;53.008;6.556;2023-03-05T07:18:57;4.60;1.00
55036;DHT22;40936;53.008;6.556;2023-03-05T07:21:26;5.00;1.00
55036;DHT22;40936;53.008;6.556;2023-03-05T07:23:53;4.60;1.00
55036;DHT22;40936;53.008;6.556;2023-03-05T07:26:19;4.60;1.00
55036;DHT22;40936;53.008;6.556;2023-03-05T07:28:45;4.90;1.00
55036;DHT22;40936;53.008;6.556;2023-03-05T07:31:15;4.70;1.00
55036;DHT22;40936;53.008;6.556;2023-03-05T07:33:43;4.90;1.00
55036;DHT22;40936;53.008;6.556;2023-03-05T07:36:10;4.70;1.00
55036;DHT22;40936;53.008;6.556;2023-03-05T07:38:36;6.50;1.00
55036;DHT22;40936;53.008;6.556;2023-03-05T07:41:13;7.50;1.00
55036;DHT22;40936;53.008;6.556;2023-03-05T07:43:44;3.70;1.00
55036;DHT22;40936;53.008;6.556;2023-03-05T07:46:10;5.70;1.00
55036;DHT22;40936;53.008;6.556;2023-03-05T07:48:37;5.30;1.00
55036;DHT22;40936;53.008;6.556;2023-03-05T07:51:09;4.40;1.00
55036;DHT22;40936;53.008;6.556;2023-03-05T07:53:35;5.40;1.00
55036;DHT22;40936;53.008;6.556;2023-03-05T07:56:01;6.40;1.00
55036;DHT22;40936;53.008;6.556;2023-03-05T07:58:28;5.60;99.90
55036;DHT22;40936;53.008;6.556;2023-03-05T08:00:53;5.50;99.90
55036;DHT22;40936;53.008;6.556;2023-03-05T08:03:19;7.00;99.90
55036;DHT22;40936;53.008;6.556;2023-03-05T08:05:45;7.10;99.90
55036;DHT22;40936;53.008;6.556;2023-03-05T08:08:11;6.10;99.90
55036;DHT22;40936;53.008;6.556;2023-03-05T08:10:36;6.50;99.90
55036;DHT22;40936;53.008;6.556;2023-03-05T08:13:03;6.00;99.90
55036;DHT22;40936;53.008;6.556;2023-03-05T08:15:29;7.10;99.90
55036;DHT22;40936;53.008;6.556;2023-03-05T08:17:56;7.00;99.90
55036;DHT22;40936;53.008;6.556;2023-03-05T08:20:22;4.90;99.90
55036;DHT22;40936;53.008;6.556;2023-03-05T08:22:48;6.70;99.90
55036;DHT22;40936;53.008;6.556;2023-03-05T08:27:42;6.60;99.90
55036;DHT22;40936;53.008;6.556;2023-03-05T08:30:10;7.10;99.90
55036;DHT22;40936;53.008;6.556;2023-03-05T08:32:36;6.20;99.90
55036;DHT22;40936;53.008;6.556;2023-03-05T08:35:02;6.50;99.90
55036;DHT22;40936;53.008;6.556;2023-03-05T08:37:29;6.50;99.90
55036;DHT22;40936;53.008;6.556;2023-03-05T08:39:56;6.60;99.90
55036;DHT22;40936;53.008;6.556;2023-03-05T08:42:22;7.60;99.90
55036;DHT22;40936;53.008;6.556;2023-03-05T08:44:48;7.70;99.90
55036;DHT22;40936;53.008;6.556;2023-03-05T08:47:14;7.30;99.90
55036;DHT22;40936;53.008;6.556;2023-03-05T08:49:39;6.90;99.90
55036;DHT22;40936;53.008;6.556;2023-03-05T08:52:05;7.20;99.90
55036;DHT22;40936;53.008;6.556;2023-03-05T08:54:32;7.80;34.80
55036;DHT22;40936;53.008;6.556;2023-03-05T08:56:58;9.70;1.00
55036;DHT22;40936;53.008;6.556;2023-03-05T08:59:24;9.60;1.00
55036;DHT22;40936;53.008;6.556;2023-03-05T09:01:49;10.50;1.00
55036;DHT22;40936;53.008;6.556;2023-03-05T09:04:15;10.70;1.00
55036;DHT22;40936;53.008;6.556;2023-03-05T09:06:41;11.20;1.00
55036;DHT22;40936;53.008;6.556;2023-03-05T09:09:08;11.30;99.90
55036;DHT22;40936;53.008;6.556;2023-03-05T09:11:34;11.70;1.00
55036;DHT22;40936;53.008;6.556;2023-03-05T09:14:02;12.00;99.90
55036;DHT22;40936;53.008;6.556;2023-03-05T09:16:28;12.30;99.90
55036;DHT22;40936;53.008;6.556;2023-03-05T09:18:53;12.40;99.90
55036;DHT22;40936;53.008;6.556;2023-03-05T09:21:19;12.90;99.90
55036;DHT22;40936;53.008;6.556;2023-03-05T09:23:45;13.40;99.90
55036;DHT22;40936;53.008;6.556;2023-03-05T09:26:13;13.70;99.90
55036;DHT22;40936;53.008;6.556;2023-03-05T09:28:40;13.90;99.90
55036;DHT22;40936;53.008;6.556;2023-03-05T09:31:08;14.20;99.90
55036;DHT22;40936;53.008;6.556;2023-03-05T09:33:34;13.90;99.90
55036;DHT22;40936;53.008;6.556;2023-03-05T09:36:01;14.30;99.90
55036;DHT22;40936;53.008;6.556;2023-03-05T09:38:28;14.60;99.90
55036;DHT22;40936;53.008;6.556;2023-03-05T09:41:11;15.00;99.90
55036;DHT22;40936;53.008;6.556;2023-03-05T09:44:01;15.40;99.90
55036;DHT22;40936;53.008;6.556;2023-03-05T09:51:41;15.30;99.90
55036;DHT22;40936;53.008;6.556;2023-03-05T09:54:31;14.60;99.90
55036;DHT22;40936;53.008;6.556;2023-03-05T09:57:03;13.60;99.90
55036;DHT22;40936;53.008;6.556;2023-03-05T10:02:25;11.60;99.90
55036;DHT22;40936;53.008;6.556;2023-03-05T10:05:19;10.60;99.90
55036;DHT22;40936;53.008;6.556;2023-03-05T10:07:57;9.60;99.90
55036;DHT22;40936;53.008;6.556;2023-03-05T10:10:42;9.00;99.90
55036;DHT22;40936;53.008;6.556;2023-03-05T10:13:23;8.60;99.90
55036;DHT22;40936;53.008;6.556;2023-03-05T10:18:45;8.60;1.00
55036;DHT22;40936;53.008;6.556;2023-03-05T10:21:30;8.90;99.90
55036;DHT22;40936;53.008;6.556;2023-03-05T10:24:18;9.30;99.90
55036;DHT22;40936;53.008;6.556;2023-03-05T10:26:56;10.00;99.90
55036;DHT22;40936;53.008;6.556;2023-03-05T10:29:39;9.50;99.90
55036;DHT22;40936;53.008;6.556;2023-03-05T10:35:07;9.00;99.90
55036;DHT22;40936;53.008;6.556;2023-03-05T10:40:55;8.20;1.00
55036;DHT22;40936;53.008;6.556;2023-03-05T10:43:57;8.00;1.00
55036;DHT22;40936;53.008;6.556;2023-03-05T10:46:35;8.00;1.00
55036;DHT22;40936;53.008;6.556;2023-03-05T10:51:50;8.70;1.00
55036;DHT22;40936;53.008;6.556;2023-03-05T10:54:27;9.30;1.00
55036;DHT22;40936;53.008;6.556;2023-03-05T10:57:21;9.80;1.00
55036;DHT22;40936;53.008;6.556;2023-03-05T11:02:26;10.70;1.00
55036;DHT22;40936;53.008;6.556;2023-03-05T11:04:52;10.70;99.90
55036;DHT22;40936;53.008;6.556;2023-03-05T11:12:28;11.20;99.90
55036;DHT22;40936;53.008;6.556;2023-03-05T11:17:36;12.60;99.90
55036;DHT22;40936;53.008;6.556;2023-03-05T11:25:34;13.90;99.90
55036;DHT22;40936;53.008;6.556;2023-03-05T11:28:02;13.50;99.90
55036;DHT22;40936;53.008;6.556;2023-03-05T11:30:36;13.20;99.90
55036;DHT22;40936;53.008;6.556;2023-03-05T11:33:17;12.70;99.90
55036;DHT22;40936;53.008;6.556;2023-03-05T11:35:45;12.00;99.90
55036;DHT22;40936;53.008;6.556;2023-03-05T11:38:21;11.20;99.90
55036;DHT22;40936;53.008;6.556;2023-03-05T11:40:50;10.70;99.90
55036;DHT22;40936;53.008;6.556;2023-03-05T11:43:22;10.80;99.90
55036;DHT22;40936;53.008;6.556;2023-03-05T11:45:50;10.60;99.90
55036;DHT22;40936;53.008;6.556;2023-03-05T11:48:45;10.40;99.90
55036;DHT22;40936;53.008;6.556;2023-03-05T11:51:35;10.10;99.90
55036;DHT22;40936;53.008;6.556;2023-03-05T11:54:07;9.80;99.90
55036;DHT22;40936;53.008;6.556;2023-03-05T11:56:37;9.70;99.90
55036;DHT22;40936;53.008;6.556;2023-03-05T11:59:16;9.70;99.90
55036;DHT22;40936;53.008;6.556;2023-03-05T12:01:50;9.90;99.90
55036;DHT22;40936;53.008;6.556;2023-03-05T12:04:17;10.00;99.90
55036;DHT22;40936;53.008;6.556;2023-03-05T12:18:14;10.30;99.90
55036;DHT22;40936;53.008;6.556;2023-03-05T12:22:46;10.20;99.90
55036;DHT22;40936;53.008;6.556;2023-03-05T12:27:53;10.20;99.90
55036;DHT22;40936;53.008;6.556;2023-03-05T12:33:01;10.10;99.90
55036;DHT22;40936;53.008;6.556;2023-03-05T12:35:38;10.00;99.90
55036;DHT22;40936;53.008;6.556;2023-03-05T12:38:26;10.00;99.90
55036;DHT22;40936;53.008;6.556;2023-03-05T12:51:52;9.90;99.90
55036;DHT22;40936;53.008;6.556;2023-03-05T12:54:23;9.80;99.90
55036;DHT22;40936;53.008;6.556;2023-03-05T12:56:52;9.80;99.90
55036;DHT22;40936;53.008;6.556;2023-03-05T12:59:19;9.80;99.90
55036;DHT22;40936;53.008;6.556;2023-03-05T13:01:53;9.90;99.90
55036;DHT22;40936;53.008;6.556;2023-03-05T13:04:26;10.00;99.90
55036;DHT22;40936;53.008;6.556;2023-03-05T13:07:04;10.00;99.90
55036;DHT22;40936;53.008;6.556;2023-03-05T13:09:32;10.00;99.90
55036;DHT22;40936;53.008;6.556;2023-03-05T13:12:02;9.90;99.90
55036;DHT22;40936;53.008;6.556;2023-03-05T13:19:20;10.70;99.90
55036;DHT22;40936;53.008;6.556;2023-03-05T13:21:59;10.00;99.90
55036;DHT22;40936;53.008;6.556;2023-03-05T13:24:25;10.10;99.90
55036;DHT22;40936;53.008;6.556;2023-03-05T13:26:50;9.70;99.90
55036;DHT22;40936;53.008;6.556;2023-03-05T13:29:21;9.60;99.90
55036;DHT22;40936;53.008;6.556;2023-03-05T13:34:27;8.50;99.90
55036;DHT22;40936;53.008;6.556;2023-03-05T13:39:26;8.50;99.90
55036;DHT22;40936;53.008;6.556;2023-03-05T13:42:04;9.20;99.90
55036;DHT22;40936;53.008;6.556;2023-03-05T13:44:31;8.50;99.90
55036;DHT22;40936;53.008;6.556;2023-03-05T13:47:13;8.50;99.90
55036;DHT22;40936;53.008;6.556;2023-03-05T13:49:40;8.50;99.90
55036;DHT22;40936;53.008;6.556;2023-03-05T13:52:06;9.00;99.90
55036;DHT22;40936;53.008;6.556;2023-03-05T13:54:32;9.40;99.90
55036;DHT22;40936;53.008;6.556;2023-03-05T13:57:05;8.70;99.90
55036;DHT22;40936;53.008;6.556;2023-03-05T13:59:36;8.50;99.90
55036;DHT22;40936;53.008;6.556;2023-03-05T14:02:23;8.60;99.90
55036;DHT22;40936;53.008;6.556;2023-03-05T14:04:49;8.70;99.90
55036;DHT22;40936;53.008;6.556;2023-03-05T14:09:55;8.80;99.90
55036;DHT22;40936;53.008;6.556;2023-03-05T14:14:55;9.30;99.90
55036;DHT22;40936;53.008;6.556;2023-03-05T14:17:41;9.30;99.90
55036;DHT22;40936;53.008;6.556;2023-03-05T14:22:42;9.50;99.90
55036;DHT22;40936;53.008;6.556;2023-03-05T14:25:37;9.50;99.90
55036;DHT22;40936;53.008;6.556;2023-03-05T14:30:46;9.70;99.90
55036;DHT22;40936;53.008;6.556;2023-03-05T14:33:13;9.80;99.90
55036;DHT22;40936;53.008;6.556;2023-03-05T14:35:38;9.80;99.90
55036;DHT22;40936;53.008;6.556;2023-03-05T14:38:05;9.90;99.90
55036;DHT22;40936;53.008;6.556;2023-03-05T14:40:34;9.90;99.90
55036;DHT22;40936;53.008;6.556;2023-03-05T14:43:02;9.70;99.90
55036;DHT22;40936;53.008;6.556;2023-03-05T14:45:33;9.50;99.90
55036;DHT22;40936;53.008;6.556;2023-03-05T14:48:01;9.40;99.90
55036;DHT22;40936;53.008;6.556;2023-03-05T14:50:31;9.30;99.90
55036;DHT22;40936;53.008;6.556;2023-03-05T14:53:00;9.20;99.90
55036;DHT22;40936;53.008;6.556;2023-03-05T14:55:29;8.90;99.90
55036;DHT22;40936;53.008;6.556;2023-03-05T14:58:27;10.00;99.90
55036;DHT22;40936;53.008;6.556;2023-03-05T15:00:53;8.70;99.90
55036;DHT22;40936;53.008;6.556;2023-03-05T15:03:20;8.60;99.90
55036;DHT22;40936;53.008;6.556;2023-03-05T15:05:51;8.40;99.90
55036;DHT22;40936;53.008;6.556;2023-03-05T15:08:20;9.80;99.90
55036;DHT22;40936;53.008;6.556;2023-03-05T15:10:47;8.50;99.90
55036;DHT22;40936;53.008;6.556;2023-03-05T15:13:14;8.80;99.90
55036;DHT22;40936;53.008;6.556;2023-03-05T15:15:41;8.30;99.90
55036;DHT22;40936;53.008;6.556;2023-03-05T15:18:15;8.10;99.90
55036;DHT22;40936;53.008;6.556;2023-03-05T15:20:42;8.00;99.90
55036;DHT22;40936;53.008;6.556;2023-03-05T15:23:08;5.50;99.90
55036;DHT22;40936;53.008;6.556;2023-03-05T15:25:34;8.50;99.90
55036;DHT22;40936;53.008;6.556;2023-03-05T15:28:00;8.40;99.90
55036;DHT22;40936;53.008;6.556;2023-03-05T15:30:32;8.30;99.90
55036;DHT22;40936;53.008;6.556;2023-03-05T15:33:01;8.20;99.90
55036;DHT22;40936;53.008;6.556;2023-03-05T15:35:27;10.30;99.90
55036;DHT22;40936;53.008;6.556;2023-03-05T15:37:53;8.20;99.90
55036;DHT22;40936;53.008;6.556;2023-03-05T15:40:20;8.20;99.90
55036;DHT22;40936;53.008;6.556;2023-03-05T15:42:46;8.20;99.90
55036;DHT22;40936;53.008;6.556;2023-03-05T15:45:12;8.20;99.90
55036;DHT22;40936;53.008;6.556;2023-03-05T15:47:38;8.60;99.90
55036;DHT22;40936;53.008;6.556;2023-03-05T15:50:04;8.30;99.90
55036;DHT22;40936;53.008;6.556;2023-03-05T15:52:30;8.30;99.90
55036;DHT22;40936;53.008;6.556;2023-03-05T15:54:56;8.30;99.90
55036;DHT22;40936;53.008;6.556;2023-03-05T15:57:22;8.20;99.90
55036;DHT22;40936;53.008;6.556;2023-03-05T15:59:47;8.20;99.90
55036;DHT22;40936;53.008;6.556;2023-03-05T16:02:13;8.10;99.90
55036;DHT22;40936;53.008;6.556;2023-03-05T16:04:39;8.10;99.90
55036;DHT22;40936;53.008;6.556;2023-03-05T16:07:05;8.30;99.90
55036;DHT22;40936;53.008;6.556;2023-03-05T16:09:35;8.20;99.90
55036;DHT22;40936;53.008;6.556;2023-03-05T16:12:04;8.30;99.90
55036;DHT22;40936;53.008;6.556;2023-03-05T16:14:32;8.80;99.90
55036;DHT22;40936;53.008;6.556;2023-03-05T16:16:59;8.10;99.90
55036;DHT22;40936;53.008;6.556;2023-03-05T16:19:26;8.10;99.90
55036;DHT22;40936;53.008;6.556;2023-03-05T16:21:52;8.00;99.90
55036;DHT22;40936;53.008;6.556;2023-03-05T16:24:18;7.90;99.90
55036;DHT22;40936;53.008;6.556;2023-03-05T16:26:43;9.00;99.90
55036;DHT22;40936;53.008;6.556;2023-03-05T16:29:10;8.30;99.90
55036;DHT22;40936;53.008;6.556;2023-03-05T16:31:36;7.70;99.90
55036;DHT22;40936;53.008;6.556;2023-03-05T16:34:08;7.60;99.90
55036;DHT22;40936;53.008;6.556;2023-03-05T16:36:33;7.60;99.90
55036;DHT22;40936;53.008;6.556;2023-03-05T16:39:02;7.60;99.90
55036;DHT22;40936;53.008;6.556;2023-03-05T16:41:28;7.60;99.90
55036;DHT22;40936;53.008;6.556;2023-03-05T16:43:54;7.20;99.90
55036;DHT22;40936;53.008;6.556;2023-03-05T16:46:22;6.20;99.90
55036;DHT22;40936;53.008;6.556;2023-03-05T16:48:48;7.00;99.90
55036;DHT22;40936;53.008;6.556;2023-03-05T16:51:14;5.70;99.90
55036;DHT22;40936;53.008;6.556;2023-03-05T16:53:40;7.50;99.90
55036;DHT22;40936;53.008;6.556;2023-03-05T16:56:07;7.50;99.90
55036;DHT22;40936;53.008;6.556;2023-03-05T16:58:34;7.40;99.90
55036;DHT22;40936;53.008;6.556;2023-03-05T17:01:01;5.70;99.90
55036;DHT22;40936;53.008;6.556;2023-03-05T17:03:27;7.30;99.90
55036;DHT22;40936;53.008;6.556;2023-03-05T17:05:54;7.20;99.90
55036;DHT22;40936;53.008;6.556;2023-03-05T17:08:21;8.00;99.90
55036;DHT22;40936;53.008;6.556;2023-03-05T17:10:48;7.30;99.90
55036;DHT22;40936;53.008;6.556;2023-03-05T17:13:14;8.00;99.90
55036;DHT22;40936;53.008;6.556;2023-03-05T17:15:40;6.90;99.90
55036;DHT22;40936;53.008;6.556;2023-03-05T17:18:05;7.20;99.90
55036;DHT22;40936;53.008;6.556;2023-03-05T17:20:32;6.80;99.90
55036;DHT22;40936;53.008;6.556;2023-03-05T17:23:00;6.70;99.90
55036;DHT22;40936;53.008;6.556;2023-03-05T17:25:27;6.90;99.90
55036;DHT22;40936;53.008;6.556;2023-03-05T17:27:52;5.90;99.90
55036;DHT22;40936;53.008;6.556;2023-03-05T17:30:18;6.60;99.90
55036;DHT22;40936;53.008;6.556;2023-03-05T17:32:44;6.70;99.90
55036;DHT22;40936;53.008;6.556;2023-03-05T17:35:18;6.70;99.90
55036;DHT22;40936;53.008;6.556;2023-03-05T17:37:44;6.70;99.90
55036;DHT22;40936;53.008;6.556;2023-03-05T17:40:12;6.60;99.90
55036;DHT22;40936;53.008;6.556;2023-03-05T17:42:38;6.60;99.90
55036;DHT22;40936;53.008;6.556;2023-03-05T17:45:04;8.40;99.90
55036;DHT22;40936;53.008;6.556;2023-03-05T17:47:32;6.50;99.90
55036;DHT22;40936;53.008;6.556;2023-03-05T17:49:59;5.60;99.90
55036;DHT22;40936;53.008;6.556;2023-03-05T17:52:24;6.30;99.90
55036;DHT22;40936;53.008;6.556;2023-03-05T17:54:50;6.50;99.90